Warning: Javascript must be enabled to use all the features on this page!


Page Loading - Please Wait...

* We've detected you're using a mobile device. Find our Next Generation Station Page here.
Click to hideNews Bulletins

Peak Streamflow for the Nation

USGS 07375222 Abita River north of Abita Springs, LA

St. Tammany Parish, Louisiana
Hydrologic Unit Code 08090201
Latitude  30°28'55", Longitude  90°02'20" NAD27
Drainage area 46.10  square miles
Gage datum -0.83 feet above NAVD88
Output formats
Table
Graph
Tab-separated file
peakfq (watstore) format
Reselect output format
Water
Year
Date Gage
Height
(feet)
Stream-
flow
(cfs)
1966 1966-02-13 22.46 3,230
1967 1967-04-14 19.58 1,390
1968 1968-01-15 14.75 541
1969 1969-04-13 19.31 1,300
1970 1970-03-04 14.14 485
1971 1971-02-26 20.64 1,960
1972 1972-05-08 23.38 4,050
1973 1973-03-24 23.69 4,360
1974 1974-05-23 23.37 4,040
1975 1975-07-27 20.05 1,630
1976 1976-02-01 17.98 961
1977 1977-08-25 22.16 2,990
1978 1978-05-03 23.92 4,590
1979 1979-02-27 21.05 2,200
1980 1980-03-29 24.07 4,750
1981 1981-02-11 23.06 3,750
1982 1982-02-02 18.82 1,150
1983 1983-04-08 23.66 4,330
1984 1983-12-29 23.05 3,740
1985 1985-08-20 18.31 1,000
1986 1985-10-28 20.03 1,660
1987 1987-08-06 22.88 3,580
1988 1988-04-03 23.15 3,830
1989 1989-08-02 18.76 1,130
1990 1990-05-12 21.28 2,370
1991 1991-05-10 22.25 3,060
1992 1992-08-27 20.08 1,680
1993 1993-01-22 23.75 4,420
1994 1994-07-13 17.27 812
1995 1995-04-12 25.37 6,000
1996 1996-03-18 22.59 3,330
1997 1997-02-26 20.09 1,680
1998 1998-01-09 21.10 2,250
2000 1999-10-09 13.19 431
2001 2001-06-11 25.25 5,840
2002 2002-09-26 23.23 3,900
2003 2003-07-01 24.17 4,810
2004 2004-06-27 20.20 3,020
2005 2005-08-30 24.18 4,810
2006 2006-04-30 20.50 1,900
2007 2006-12-31 21.03 2,210
2008 2008-09-02 23.78 4,440
2009 2009-03-27 21.69 2,640
2010 2010-02-05 20.22 1,750
2011 2011-09-05 20.32 1,800
2014 2014-06-01 21.75 2,690
2015 2015-01-23 20.48 1,890
2016 2016-03-12    
2017 2017-01-02    
2018 2018-04-15    
2019 2018-12-28    
2020 2020-05-15